Time;durP1;ratioP1;P1;durP2;ratioP2;P2;SDS_P1;SDS_P2;PMS_P1;PMS_P2;Temp;Humidity;BMP_temperature;BMP_pressure;BME280_temperature;BME280_humidity;BME280_pressure;Samples;Min_cycle;Max_cycle;Signal;HPM_P1;HPM_P2
2022/12/16 00:00:03;;;;;;;1.63;0.90;;;3.30;89.50;;;;;;5098330;28;20056;-79
2022/12/16 00:02:29;;;;;;;1.83;0.90;;;3.30;89.60;;;;;;5080210;28;20488;-80
2022/12/16 00:04:56;;;;;;;1.10;0.60;;;3.30;89.50;;;;;;5099440;28;20090;-78
2022/12/16 00:07:22;;;;;;;2.20;0.85;;;3.20;89.20;;;;;;5099078;28;20485;-78
2022/12/16 00:09:48;;;;;;;1.70;0.90;;;3.30;90.00;;;;;;5080755;28;20431;-78
2022/12/16 00:12:13;;;;;;;1.88;0.85;;;3.20;89.70;;;;;;5098537;28;20072;-78
2022/12/16 00:14:39;;;;;;;1.30;0.77;;;3.20;90.20;;;;;;5084072;28;20032;-78
2022/12/16 00:17:05;;;;;;;1.48;1.00;;;3.20;89.80;;;;;;5097524;28;20036;-78
2022/12/16 00:19:31;;;;;;;1.60;0.90;;;3.20;89.60;;;;;;5099682;28;20564;-78
2022/12/16 00:21:56;;;;;;;1.50;0.98;;;3.10;89.30;;;;;;5099658;28;20032;-80
2022/12/16 00:24:22;;;;;;;1.52;0.98;;;3.10;90.10;;;;;;5098402;28;20112;-78
2022/12/16 00:26:48;;;;;;;1.48;0.80;;;3.10;90.00;;;;;;5099239;28;20028;-78
2022/12/16 00:29:14;;;;;;;2.65;0.90;;;3.00;89.90;;;;;;5081220;28;20076;-78
2022/12/16 00:31:39;;;;;;;1.55;0.93;;;3.00;90.10;;;;;;5098881;28;20027;-79
2022/12/16 00:34:05;;;;;;;1.52;0.90;;;3.00;90.20;;;;;;5080747;28;20484;-79
2022/12/16 00:36:30;;;;;;;1.48;1.05;;;3.00;90.40;;;;;;5098927;28;20275;-78
2022/12/16 00:38:56;;;;;;;1.40;0.98;;;3.00;90.60;;;;;;5098661;28;20028;-78
2022/12/16 00:41:22;;;;;;;2.33;1.00;;;3.00;90.50;;;;;;5080595;28;20099;-78
2022/12/16 00:43:48;;;;;;;1.77;1.00;;;3.00;90.50;;;;;;5098040;28;20032;-79
2022/12/16 00:46:13;;;;;;;1.63;0.80;;;3.00;90.30;;;;;;5080946;28;20032;-78
2022/12/16 00:48:39;;;;;;;1.20;0.70;;;2.90;90.50;;;;;;5098917;28;20073;-79
2022/12/16 00:51:04;;;;;;;1.40;0.85;;;2.90;90.50;;;;;;5098820;28;20098;-79
2022/12/16 00:53:30;;;;;;;1.92;0.90;;;2.90;90.70;;;;;;5098934;28;20031;-79
2022/12/16 00:56:07;;;;;;;0.88;0.68;;;2.90;90.90;;;;;;5080555;28;20039;-78
2022/12/16 00:58:32;;;;;;;2.03;0.85;;;2.90;90.90;;;;;;5105883;28;20062;-78
2022/12/16 01:00:58;;;;;;;2.40;1.63;;;2.90;91.00;;;;;;5098589;28;20032;-77
2022/12/16 01:03:24;;;;;;;1.67;0.95;;;2.80;90.70;;;;;;5098676;28;20026;-78
2022/12/16 01:05:49;;;;;;;1.63;0.98;;;2.80;90.90;;;;;;5098415;28;20033;-77
2022/12/16 01:08:15;;;;;;;2.00;0.95;;;2.80;90.90;;;;;;5098620;28;20024;-77
2022/12/16 01:10:41;;;;;;;1.27;1.00;;;2.80;91.20;;;;;;5080246;28;20039;-77
2022/12/16 01:13:06;;;;;;;1.85;1.38;;;2.80;91.10;;;;;;5098386;28;20024;-79
2022/12/16 01:15:32;;;;;;;2.40;0.90;;;2.80;91.10;;;;;;5079727;28;20020;-78
2022/12/16 01:17:58;;;;;;;2.22;1.30;;;2.70;90.90;;;;;;5098524;28;20020;-78
2022/12/16 01:20:23;;;;;;;1.45;0.85;;;2.70;91.00;;;;;;5098063;28;20054;-79
2022/12/16 01:22:49;;;;;;;2.65;1.15;;;2.70;91.10;;;;;;5097507;28;20031;-79
2022/12/16 01:25:16;;;;;;;1.75;0.93;;;2.70;91.30;;;;;;5097464;28;20104;-78
2022/12/16 01:27:42;;;;;;;1.80;1.17;;;2.60;91.10;;;;;;5079770;28;20111;-79
2022/12/16 01:30:09;;;;;;;2.10;1.00;;;2.60;91.20;;;;;;5079408;28;20052;-77
2022/12/16 01:32:35;;;;;;;1.33;1.10;;;2.50;91.30;;;;;;5097703;28;20032;-76
2022/12/16 01:35:01;;;;;;;1.65;0.80;;;2.60;91.80;;;;;;5097577;28;20035;-78
2022/12/16 01:37:27;;;;;;;2.03;1.23;;;2.50;91.70;;;;;;5097844;28;20032;-77
2022/12/16 01:39:52;;;;;;;2.22;0.90;;;2.60;91.80;;;;;;5079878;28;20024;-80
2022/12/16 01:42:20;;;;;;;2.05;1.10;;;2.60;91.60;;;;;;5079684;28;20032;-80
2022/12/16 01:44:48;;;;;;;2.40;1.00;;;2.50;91.70;;;;;;5097267;28;20028;-80
2022/12/16 01:47:25;;;;;;;2.20;1.20;;;2.50;91.80;;;;;;5096399;28;20024;-80
2022/12/16 01:50:03;;;;;;;1.98;1.20;;;2.50;91.70;;;;;;5078940;28;20032;-78
2022/12/16 01:52:32;;;;;;;1.65;0.93;;;2.50;91.90;;;;;;5097705;28;20035;-78
2022/12/16 01:55:07;;;;;;;1.75;0.80;;;2.40;92.00;;;;;;5097866;28;20054;-78
2022/12/16 01:57:43;;;;;;;1.20;0.88;;;2.40;92.00;;;;;;5097078;28;20031;-77
2022/12/16 02:00:09;;;;;;;1.80;1.00;;;2.40;92.10;;;;;;5097239;28;20051;-77
2022/12/16 02:02:36;;;;;;;1.73;0.80;;;2.40;91.80;;;;;;5097875;28;20586;-77
2022/12/16 02:05:19;;;;;;;1.83;1.20;;;2.40;92.10;;;;;;5097480;28;20507;-77
2022/12/16 02:07:54;;;;;;;;;;;2.40;92.10;;;;;;5097932;28;20025;-78
2022/12/16 02:10:29;;;;;;;1.48;0.90;;;2.40;92.00;;;;;;5097510;28;19908;-77
2022/12/16 02:13:10;;;;;;;1.35;0.90;;;2.40;92.00;;;;;;5097566;28;20524;-78
2022/12/16 02:15:47;;;;;;;2.40;0.82;;;2.40;92.00;;;;;;5097403;28;20031;-78
2022/12/16 02:18:43;;;;;;;1.42;1.00;;;2.40;92.20;;;;;;5097237;28;20398;-77
2022/12/16 02:21:33;;;;;;;1.55;0.90;;;2.40;92.20;;;;;;5090598;28;20112;-78
2022/12/16 02:24:18;;;;;;;3.22;1.40;;;2.40;92.40;;;;;;5096962;28;20495;-78
2022/12/16 02:26:59;;;;;;;1.35;0.93;;;2.40;92.10;;;;;;5112428;28;20631;-78
2022/12/16 02:29:42;;;;;;;1.95;1.13;;;2.30;92.40;;;;;;5096869;28;20032;-78
2022/12/16 02:32:08;;;;;;;1.58;1.00;;;2.30;92.30;;;;;;5078847;28;20055;-78
2022/12/16 02:34:54;;;;;;;1.80;0.95;;;2.30;92.40;;;;;;5078521;28;20399;-78
2022/12/16 02:37:39;;;;;;;1.55;0.95;;;2.30;92.50;;;;;;5096948;28;20024;-78
2022/12/16 02:40:36;;;;;;;2.08;0.95;;;2.30;92.10;;;;;;5096868;28;20031;-78
2022/12/16 02:43:38;;;;;;;2.03;1.20;;;2.20;92.30;;;;;;5095883;28;20078;-77
2022/12/16 02:46:06;;;;;;;1.50;0.80;;;2.20;92.10;;;;;;5096077;28;20085;-77
2022/12/16 02:48:31;;;;;;;1.65;1.13;;;2.10;92.30;;;;;;5096252;28;20100;-77
2022/12/16 02:50:57;;;;;;;1.60;0.95;;;2.20;92.30;;;;;;5097049;28;20566;-77
2022/12/16 02:53:23;;;;;;;2.40;1.27;;;2.10;92.40;;;;;;5078607;28;20472;-77
2022/12/16 02:56:18;;;;;;;2.15;1.65;;;2.10;92.70;;;;;;5096904;28;20028;-77
2022/12/16 02:58:49;;;;;;;2.08;1.00;;;2.10;92.60;;;;;;5070405;28;20114;-77
2022/12/16 03:01:34;;;;;;;2.08;1.23;;;2.10;92.30;;;;;;5079230;28;20040;-77
2022/12/16 03:04:10;;;;;;;2.53;1.20;;;2.00;92.40;;;;;;5089931;28;20024;-77
2022/12/16 03:06:40;;;;;;;2.35;1.20;;;2.00;92.60;;;;;;5100773;28;20111;-77
2022/12/16 03:09:09;;;;;;;1.50;0.95;;;2.00;92.60;;;;;;5082741;28;20051;-76
2022/12/16 03:11:39;;;;;;;1.40;0.93;;;1.90;92.60;;;;;;5100715;28;20051;-77
2022/12/16 03:14:07;;;;;;;2.17;0.90;;;1.90;93.10;;;;;;5100505;28;20024;-76
2022/12/16 03:16:33;;;;;;;1.27;1.00;;;2.00;93.30;;;;;;5100525;28;20024;-76
2022/12/16 03:19:05;;;;;;;2.75;1.20;;;2.00;93.10;;;;;;5100740;28;20080;-76
2022/12/16 03:21:40;;;;;;;1.77;1.02;;;2.00;93.10;;;;;;5082636;28;20028;-78
2022/12/16 03:24:09;;;;;;;2.10;0.98;;;1.90;92.80;;;;;;5100355;28;20031;-78
2022/12/16 03:26:50;;;;;;;1.60;1.10;;;1.90;92.90;;;;;;5082426;28;20039;-78
2022/12/16 03:29:34;;;;;;;2.00;1.33;;;1.80;93.20;;;;;;5099768;28;20020;-78
2022/12/16 03:32:04;;;;;;;2.33;1.00;;;1.80;93.40;;;;;;5081766;28;20016;-77
2022/12/16 03:34:43;;;;;;;2.22;1.20;;;1.80;93.40;;;;;;5100043;28;20020;-77
2022/12/16 03:37:11;;;;;;;1.77;1.30;;;1.80;93.70;;;;;;5100029;28;20024;-77
2022/12/16 03:39:47;;;;;;;2.70;1.20;;;1.80;93.30;;;;;;5082192;28;20025;-78
2022/12/16 03:42:14;;;;;;;2.05;1.10;;;1.80;93.50;;;;;;5100015;28;20028;-78
2022/12/16 03:44:45;;;;;;;2.83;1.38;;;1.80;93.60;;;;;;5099996;28;20055;-78
2022/12/16 03:47:11;;;;;;;3.33;1.60;;;1.70;93.60;;;;;;5099512;28;20055;-78
2022/12/16 03:49:37;;;;;;;2.20;1.30;;;1.70;93.60;;;;;;5081811;28;20028;-78
2022/12/16 03:52:03;;;;;;;1.88;1.15;;;1.70;93.70;;;;;;5099779;28;20024;-78
2022/12/16 03:54:29;;;;;;;2.67;1.10;;;1.60;93.50;;;;;;5081615;28;20024;-78
2022/12/16 03:56:55;;;;;;;2.40;1.00;;;1.70;93.90;;;;;;5081527;28;20377;-79
2022/12/16 03:59:20;;;;;;;1.63;1.05;;;1.70;94.30;;;;;;5081562;28;20052;-78
2022/12/16 04:01:46;;;;;;;2.60;1.33;;;1.70;94.20;;;;;;5095692;28;20028;-79
2022/12/16 04:04:12;;;;;;;2.22;1.10;;;1.70;94.00;;;;;;5081782;28;20046;-79
2022/12/16 04:06:38;;;;;;;2.58;1.50;;;1.70;94.10;;;;;;5099215;28;20510;-78
2022/12/16 04:09:03;;;;;;;2.40;1.33;;;1.70;94.20;;;;;;5099651;28;20078;-79
2022/12/16 04:25:23;;;;;;;1.45;0.90;;;1.60;94.40;;;;;;5099532;28;20106;-77
2022/12/16 04:27:48;;;;;;;2.90;1.33;;;1.60;94.40;;;;;;5099273;28;20028;-76
2022/12/16 04:30:19;;;;;;;1.98;0.88;;;1.50;94.50;;;;;;5099069;28;20024;-76
